Time;durP1;ratioP1;P1;durP2;ratioP2;P2;SDS_P1;SDS_P2;PMS_P1;PMS_P2;Temp;Humidity;BMP_temperature;BMP_pressure;BME280_temperature;BME280_humidity;BME280_pressure;Samples;Min_cycle;Max_cycle;Signal;HPM_P1;HPM_P2
2022/03/19 00:02:28;;;;;;;172.50;87.50;;;3.90;99.90;;;;;;4957975;28;20050;-80
2022/03/19 00:05:16;;;;;;;170.77;88.10;;;3.90;99.90;;;;;;4949383;28;20473;-81
2022/03/19 00:08:05;;;;;;;179.05;89.88;;;3.90;99.90;;;;;;4967640;28;20045;-79
2022/03/19 00:10:53;;;;;;;167.10;87.00;;;3.90;99.90;;;;;;4971018;28;20051;-82
2022/03/19 00:13:40;;;;;;;175.25;91.32;;;3.90;99.90;;;;;;4969871;28;20043;-81
2022/03/19 00:16:27;;;;;;;179.27;90.78;;;3.90;99.90;;;;;;4964342;28;20403;-82
2022/03/19 00:19:17;;;;;;;166.27;88.22;;;3.80;99.90;;;;;;4965227;28;20050;-80
2022/03/19 00:22:08;;;;;;;177.10;90.65;;;3.80;99.90;;;;;;4972757;28;20066;-81
2022/03/19 00:24:59;;;;;;;169.18;88.15;;;3.80;99.90;;;;;;4972223;28;20051;-81
2022/03/19 00:27:46;;;;;;;169.63;90.25;;;3.80;99.90;;;;;;4962862;28;20066;-80
2022/03/19 00:30:34;;;;;;;173.13;89.70;;;3.80;99.90;;;;;;4972800;28;20046;-80
2022/03/19 00:33:23;;;;;;;180.02;91.80;;;3.70;99.90;;;;;;4966104;28;20075;-80
2022/03/19 00:36:10;;;;;;;181.55;89.80;;;3.70;99.90;;;;;;4973076;28;20110;-82
2022/03/19 00:38:58;;;;;;;174.07;91.20;;;3.80;99.90;;;;;;4963212;28;20074;-81
2022/03/19 00:41:45;;;;;;;172.27;89.88;;;3.80;99.90;;;;;;4971586;28;20059;-82
2022/03/19 00:44:32;;;;;;;169.18;89.68;;;3.70;99.90;;;;;;4971404;28;20047;-84
2022/03/19 00:47:20;;;;;;;170.23;89.38;;;3.80;99.90;;;;;;4971718;28;20054;-79
2022/03/19 00:50:08;;;;;;;165.27;88.28;;;3.80;99.90;;;;;;4958378;28;20396;-82
2022/03/19 00:52:55;;;;;;;168.27;88.75;;;3.80;99.90;;;;;;4958458;28;20043;-83
2022/03/19 00:55:43;;;;;;;165.57;87.85;;;3.80;99.90;;;;;;4972430;28;20050;-83
2022/03/19 00:58:30;;;;;;;167.02;89.75;;;3.70;99.90;;;;;;4961488;28;20050;-81
2022/03/19 01:01:18;;;;;;;165.80;85.97;;;3.70;99.90;;;;;;4982111;28;20047;-81
2022/03/19 01:04:05;;;;;;;165.52;88.70;;;3.70;99.90;;;;;;4969716;28;20117;-81
2022/03/19 01:06:54;;;;;;;167.30;89.72;;;3.60;99.90;;;;;;4975533;28;20161;-80
2022/03/19 01:09:41;;;;;;;167.18;86.47;;;3.70;99.90;;;;;;4980756;28;20464;-81
2022/03/19 01:12:28;;;;;;;164.13;87.93;;;3.60;99.90;;;;;;4974918;28;20130;-82
2022/03/19 01:15:16;;;;;;;160.43;83.40;;;3.60;99.90;;;;;;4974702;28;20047;-82
2022/03/19 01:18:04;;;;;;;160.45;84.90;;;3.60;99.90;;;;;;4963882;28;20055;-80
2022/03/19 01:20:56;;;;;;;158.77;85.73;;;3.60;99.90;;;;;;4963693;28;20042;-82
2022/03/19 01:23:44;;;;;;;165.73;84.40;;;3.60;99.90;;;;;;4979079;28;20402;-82
2022/03/19 01:26:36;;;;;;;163.57;84.20;;;3.60;99.90;;;;;;4987106;28;20030;-79
2022/03/19 01:29:23;;;;;;;160.18;84.18;;;3.50;99.90;;;;;;4978537;28;20126;-83
2022/03/19 01:32:11;;;;;;;159.25;83.07;;;3.50;99.90;;;;;;4971101;28;20055;-81
2022/03/19 01:34:59;;;;;;;164.88;85.18;;;3.40;99.90;;;;;;4980655;28;20065;-82
2022/03/19 01:37:47;;;;;;;152.50;82.82;;;3.40;99.90;;;;;;4973804;28;20079;-81
2022/03/19 01:40:34;;;;;;;162.93;87.50;;;3.40;99.90;;;;;;4994535;28;20039;-80
2022/03/19 01:43:22;;;;;;;158.70;79.90;;;3.50;99.90;;;;;;4978362;28;20134;-82
2022/03/19 01:46:09;;;;;;;156.00;82.82;;;3.30;99.90;;;;;;4991945;28;20050;-84
2022/03/19 01:48:56;;;;;;;158.20;81.82;;;3.30;99.90;;;;;;4984955;28;20043;-83
2022/03/19 01:51:44;;;;;;;160.45;83.47;;;3.40;99.90;;;;;;4992437;28;20107;-82
2022/03/19 01:54:41;;;;;;;152.27;81.72;;;3.40;99.90;;;;;;4989468;28;20176;-81
2022/03/19 01:57:34;;;;;;;158.63;83.18;;;3.30;99.90;;;;;;4987141;28;20109;-80
2022/03/19 02:00:25;;;;;;;151.57;80.25;;;3.20;99.90;;;;;;4966133;28;20125;-82
2022/03/19 02:03:12;;;;;;;157.60;84.22;;;3.20;99.90;;;;;;4954170;28;20055;-81
2022/03/19 02:06:03;;;;;;;147.18;79.38;;;3.20;99.90;;;;;;4976840;28;20050;-82
2022/03/19 02:08:50;;;;;;;151.82;80.43;;;3.20;99.90;;;;;;4960625;28;20508;-82
2022/03/19 02:11:37;;;;;;;146.23;78.18;;;3.10;99.90;;;;;;4969874;28;20106;-83
2022/03/19 02:14:28;;;;;;;149.25;79.97;;;3.10;99.90;;;;;;4975795;28;20126;-80
2022/03/19 02:17:15;;;;;;;151.25;82.00;;;3.10;99.90;;;;;;4973346;28;20058;-81
2022/03/19 02:20:04;;;;;;;151.95;82.43;;;3.10;99.90;;;;;;4982761;28;20042;-80
2022/03/19 02:26:01;;;;;;;155.73;79.60;;;3.10;99.90;;;;;;4971165;28;20106;-80
2022/03/19 02:28:48;;;;;;;151.15;81.45;;;3.00;99.90;;;;;;4973521;28;20058;-81
2022/03/19 02:31:44;;;;;;;156.02;80.47;;;3.00;99.90;;;;;;4972532;28;20145;-80
2022/03/19 02:34:34;;;;;;;148.93;78.25;;;3.00;99.90;;;;;;4968637;28;20054;-80
2022/03/19 02:37:22;;;;;;;147.85;78.22;;;3.10;99.90;;;;;;4967461;28;20345;-80
2022/03/19 02:40:11;;;;;;;141.48;75.65;;;3.00;99.90;;;;;;4974161;28;20125;-82
2022/03/19 02:43:02;;;;;;;139.30;74.97;;;2.90;99.90;;;;;;4968187;28;20047;-82
2022/03/19 02:45:49;;;;;;;146.93;80.30;;;2.90;99.90;;;;;;4974463;28;20050;-78
2022/03/19 02:48:36;;;;;;;150.45;77.78;;;2.90;99.90;;;;;;4974426;28;20062;-80
2022/03/19 02:51:24;;;;;;;144.82;79.43;;;2.90;99.90;;;;;;4974457;28;20058;-81
2022/03/19 02:54:22;;;;;;;151.48;77.35;;;2.80;99.90;;;;;;4973675;28;20130;-82
2022/03/19 02:57:09;;;;;;;143.27;75.28;;;2.80;99.90;;;;;;4967407;28;20058;-81
2022/03/19 03:00:05;;;;;;;149.07;77.82;;;2.70;99.90;;;;;;4956597;28;20049;-80
2022/03/19 03:02:55;;;;;;;139.85;75.32;;;2.80;99.90;;;;;;4973019;28;20083;-82
2022/03/19 03:05:43;;;;;;;141.10;78.45;;;2.80;99.90;;;;;;4972972;28;20141;-81
2022/03/19 03:08:31;;;;;;;134.65;75.82;;;2.80;99.90;;;;;;4955235;28;20059;-80
2022/03/19 03:11:21;;;;;;;133.45;73.38;;;2.70;99.90;;;;;;4958857;28;20101;-82
2022/03/19 03:14:09;;;;;;;141.20;76.47;;;2.70;99.90;;;;;;4958894;28;20145;-82
2022/03/19 03:17:00;;;;;;;137.43;75.03;;;2.70;99.90;;;;;;4962455;28;20088;-82
2022/03/19 03:19:51;;;;;;;144.18;76.70;;;2.60;99.90;;;;;;4976327;28;20069;-80
2022/03/19 03:22:41;;;;;;;130.65;72.38;;;2.60;99.90;;;;;;4972577;28;20348;-80
2022/03/19 03:25:28;;;;;;;146.45;73.85;;;2.60;99.90;;;;;;4974000;28;20051;-80
2022/03/19 03:28:15;;;;;;;130.48;72.72;;;2.60;99.90;;;;;;4974580;28;20055;-81
2022/03/19 03:31:02;;;;;;;136.75;72.80;;;2.60;99.90;;;;;;4964305;28;20078;-82
2022/03/19 03:33:50;;;;;;;136.75;74.57;;;2.60;99.90;;;;;;4972563;28;20460;-79
2022/03/19 03:36:37;;;;;;;139.00;73.85;;;2.50;99.90;;;;;;4972027;28;20600;-81
2022/03/19 03:39:24;;;;;;;139.32;73.60;;;2.50;99.90;;;;;;4972924;28;20050;-80
2022/03/19 03:42:11;;;;;;;133.02;74.60;;;2.50;99.90;;;;;;4964964;28;20054;-81
2022/03/19 03:44:59;;;;;;;135.18;74.03;;;2.50;99.90;;;;;;4973234;28;20051;-83
2022/03/19 03:47:46;;;;;;;131.82;71.43;;;2.50;99.90;;;;;;4972882;28;20488;-80
2022/03/19 03:50:35;;;;;;;138.98;71.13;;;2.50;99.90;;;;;;4964027;28;20055;-82
2022/03/19 03:53:25;;;;;;;130.02;69.50;;;2.50;99.90;;;;;;4972381;28;20050;-82
2022/03/19 03:56:12;;;;;;;132.07;71.07;;;2.50;99.90;;;;;;4973011;28;20082;-81
2022/03/19 03:59:00;;;;;;;129.65;69.50;;;2.60;99.90;;;;;;4980424;28;20046;-81
2022/03/19 04:01:49;;;;;;;137.60;68.55;;;2.60;99.90;;;;;;4982553;28;20436;-79
2022/03/19 04:04:38;;;;;;;127.13;69.97;;;2.60;99.90;;;;;;4978651;28;20368;-82
2022/03/19 04:07:27;;;;;;;125.10;67.40;;;2.60;99.90;;;;;;4979348;28;20058;-79
2022/03/19 04:10:14;;;;;;;122.50;66.53;;;2.60;99.90;;;;;;4950060;28;20349;-81
2022/03/19 04:13:04;;;;;;;118.43;66.55;;;2.60;99.90;;;;;;4970617;28;20409;-81
2022/03/19 04:15:51;;;;;;;127.10;67.72;;;2.60;99.90;;;;;;4972417;28;20074;-81
2022/03/19 04:18:38;;;;;;;125.57;67.03;;;2.60;99.90;;;;;;4972701;28;20209;-81
2022/03/19 04:21:25;;;;;;;121.82;65.13;;;2.50;99.90;;;;;;4973487;28;20107;-82
2022/03/19 04:24:13;;;;;;;125.22;66.90;;;2.50;99.90;;;;;;4973664;28;20472;-79
2022/03/19 04:27:00;;;;;;;124.03;65.90;;;2.50;99.90;;;;;;4972164;28;20137;-80
2022/03/19 04:29:49;;;;;;;126.55;66.25;;;2.40;99.90;;;;;;4946654;28;20175;-80
2022/03/19 04:32:47;;;;;;;122.30;63.92;;;2.40;99.90;;;;;;4970414;28;20051;-79
2022/03/19 04:38:40;;;;;;;117.20;64.40;;;2.40;99.90;;;;;;4975451;28;20592;-80
2022/03/19 04:41:27;;;;;;;117.70;62.60;;;2.40;99.90;;;;;;4977485;28;20050;-81
2022/03/19 04:44:19;;;;;;;123.32;65.88;;;2.30;99.90;;;;;;4950856;28;20054;-80
2022/03/19 04:47:06;;;;;;;144.15;69.00;;;2.30;99.90;;;;;;4972224;28;20390;-80
2022/03/19 04:49:54;;;;;;;118.90;65.00;;;2.20;99.90;;;;;;4976052;28;20043;-79
2022/03/19 04:52:42;;;;;;;116.35;65.90;;;2.30;99.90;;;;;;4976973;28;20083;-82
2022/03/19 04:55:31;;;;;;;124.40;64.57;;;2.20;99.90;;;;;;4974193;28;20859;-80
2022/03/19 04:58:20;;;;;;;118.85;64.38;;;2.20;99.90;;;;;;4977048;28;20170;-81
2022/03/19 05:01:10;;;;;;;125.20;65.00;;;2.10;99.90;;;;;;4976449;28;20448;-80
2022/03/19 05:03:58;;;;;;;127.47;67.80;;;2.10;99.90;;;;;;4975129;28;20125;-80
2022/03/19 05:06:47;;;;;;;124.03;66.90;;;2.00;99.90;;;;;;4971040;28;20046;-80
2022/03/19 05:12:45;;;;;;;120.13;64.25;;;2.10;99.90;;;;;;4974296;28;20050;-81
2022/03/19 05:15:33;;;;;;;127.28;67.32;;;2.10;99.90;;;;;;4964135;28;20038;-81
2022/03/19 05:18:20;;;;;;;117.95;62.67;;;2.10;99.90;;;;;;4975683;28;20247;-81
2022/03/19 05:21:07;;;;;;;123.07;65.80;;;2.10;99.90;;;;;;4974490;28;20151;-82
2022/03/19 05:23:55;;;;;;;125.90;66.60;;;2.00;99.90;;;;;;4971450;28;20043;-81
2022/03/19 05:26:42;;;;;;;124.70;64.88;;;2.00;99.90;;;;;;4965387;28;20086;-81
2022/03/19 05:29:34;;;;;;;120.60;64.15;;;1.90;99.90;;;;;;4978424;28;20069;-80
2022/03/19 05:32:27;;;;;;;127.70;67.32;;;2.00;99.90;;;;;;4978699;28;20055;-80
2022/03/19 05:35:17;;;;;;;123.03;66.30;;;2.00;99.90;;;;;;4975490;28;20182;-80
2022/03/19 05:38:05;;;;;;;119.53;65.10;;;2.00;99.90;;;;;;4973631;28;20110;-81
2022/03/19 05:40:52;;;;;;;127.97;66.60;;;2.00;99.90;;;;;;4970139;28;20453;-84
2022/03/19 05:43:46;;;;;;;127.03;65.30;;;2.00;99.90;;;;;;4969994;28;20047;-89
2022/03/19 05:46:36;;;;;;;123.85;64.43;;;2.00;99.90;;;;;;4975191;28;20277;-88
2022/03/19 05:53:24;;;;;;;116.00;61.03;;;2.10;99.90;;;;;;4984919;28;20027;-86
2022/03/19 05:56:54;;;;;;;;;;;;;;;;;;;;;
2022/03/19 06:00:51;;;;;;;113.60;60.72;;;2.10;99.90;;;;;;4901310;29;20061;-87
2022/03/19 06:03:39;;;;;;;110.82;59.63;;;2.10;99.90;;;;;;4898323;29;20130;-87
2022/03/19 06:06:38;;;;;;;111.53;59.60;;;2.10;99.90;;;;;;4898002;29;20056;-87
2022/03/19 06:29:39;;;;;;;102.32;55.15;;;2.50;99.90;;;;;;4899692;29;20320;-80
2022/03/19 06:32:31;;;;;;;101.97;53.58;;;2.60;99.90;;;;;;4959043;28;20070;-80
2022/03/19 06:37:19;;;;;;;94.53;52.95;;;2.80;99.90;;;;;;4984299;28;20432;-80
2022/03/19 06:38:27;;;;;;;96.30;54.00;;;3.00;99.90;;;;;;4990760;28;20065;-81
2022/03/19 06:41:21;;;;;;;91.50;50.92;;;3.20;99.90;;;;;;4980445;28;20125;-81
2022/03/19 06:44:09;;;;;;;87.20;49.95;;;3.50;99.90;;;;;;4971055;28;20039;-79
2022/03/19 06:47:01;;;;;;;85.20;50.15;;;3.70;99.90;;;;;;4996526;28;20046;-80
2022/03/19 06:49:51;;;;;;;88.53;47.58;;;3.80;99.90;;;;;;4964317;28;20536;-79
2022/03/19 06:52:40;;;;;;;83.10;46.60;;;4.00;99.90;;;;;;4974894;28;20062;-80
2022/03/19 06:55:27;;;;;;;88.88;48.13;;;4.10;99.90;;;;;;4962875;28;20333;-80
2022/03/19 06:58:15;;;;;;;87.28;48.67;;;4.30;99.90;;;;;;4975313;28;20043;-79
2022/03/19 07:01:03;;;;;;;83.43;46.55;;;4.40;99.90;;;;;;4974828;28;20425;-80
2022/03/19 07:03:53;;;;;;;80.30;46.45;;;4.60;99.90;;;;;;4959490;28;20097;-80
2022/03/19 07:06:40;;;;;;;80.25;45.30;;;4.80;99.90;;;;;;4961240;28;20744;-81
2022/03/19 07:09:51;;;;;;;75.28;44.90;;;4.90;99.90;;;;;;4968945;28;20718;-81
2022/03/19 07:12:57;;;;;;;74.10;44.25;;;5.10;99.90;;;;;;4972781;28;20042;-82
2022/03/19 07:15:44;;;;;;;77.28;45.60;;;5.20;99.90;;;;;;4972961;28;20058;-80
2022/03/19 07:18:32;;;;;;;78.60;43.85;;;5.30;99.90;;;;;;4973465;28;20054;-81
2022/03/19 07:21:19;;;;;;;73.05;43.30;;;5.50;1.00;;;;;;4969595;28;20190;-81
2022/03/19 07:24:10;;;;;;;73.13;42.67;;;5.60;99.90;;;;;;4979337;28;20125;-79
2022/03/19 07:26:58;;;;;;;76.40;42.40;;;5.60;1.00;;;;;;4973035;28;20062;-80
2022/03/19 07:29:45;;;;;;;66.85;41.33;;;5.80;99.00;;;;;;4970950;28;20070;-79
2022/03/19 07:32:32;;;;;;;70.82;41.80;;;5.90;99.90;;;;;;4971652;28;20047;-80
2022/03/19 07:35:20;;;;;;;69.93;42.53;;;6.10;99.90;;;;;;4970988;28;20570;-81
2022/03/19 07:38:09;;;;;;;71.88;42.58;;;6.10;99.90;;;;;;4972578;28;20417;-80
2022/03/19 07:44:03;;;;;;;73.43;43.47;;;6.20;1.00;;;;;;4974035;28;20528;-80
2022/03/19 07:46:53;;;;;;;72.97;43.13;;;6.40;99.90;;;;;;4973181;28;20470;-81
2022/03/19 07:49:43;;;;;;;71.72;40.55;;;6.50;15.20;;;;;;4964773;28;20057;-82
2022/03/19 07:52:32;;;;;;;70.80;41.05;;;6.60;1.00;;;;;;4970350;28;20050;-81
2022/03/19 07:55:20;;;;;;;71.50;41.20;;;6.70;1.00;;;;;;4960794;28;20043;-82
2022/03/19 07:58:07;;;;;;;71.68;40.88;;;6.80;99.90;;;;;;4969811;28;20043;-82
2022/03/19 08:00:55;;;;;;;65.00;39.92;;;7.10;99.90;;;;;;4973290;28;20376;-82
2022/03/19 08:03:45;;;;;;;68.57;38.78;;;7.20;99.90;;;;;;4974418;28;20057;-83
2022/03/19 08:06:32;;;;;;;68.03;39.45;;;7.60;99.90;;;;;;4981911;28;20043;-80
2022/03/19 08:09:20;;;;;;;66.82;39.33;;;7.60;85.20;;;;;;4986861;28;20041;-81
2022/03/19 08:12:08;;;;;;;68.30;38.65;;;7.50;34.20;;;;;;4990230;28;20118;-80
2022/03/19 08:14:56;;;;;;;58.20;36.22;;;7.70;1.00;;;;;;4987245;28;20047;-81
2022/03/19 08:17:44;;;;;;;59.45;35.55;;;8.30;1.00;;;;;;4987437;28;20333;-80
2022/03/19 08:20:31;;;;;;;60.42;35.80;;;8.60;1.00;;;;;;4995458;28;20046;-82
2022/03/19 08:23:20;;;;;;;56.35;35.33;;;8.70;1.00;;;;;;4975671;28;20050;-81
2022/03/19 08:26:07;;;;;;;54.10;35.17;;;8.90;1.00;;;;;;4991767;28;20035;-82
2022/03/19 08:28:55;;;;;;;57.33;33.45;;;9.40;99.90;;;;;;4995280;28;20046;-80
2022/03/19 08:31:42;;;;;;;55.58;33.85;;;9.30;99.90;;;;;;4986239;28;20066;-80
2022/03/19 08:34:30;;;;;;;54.85;32.65;;;9.50;99.90;;;;;;4991181;28;20105;-82
2022/03/19 08:37:20;;;;;;;56.35;34.97;;;9.40;99.90;;;;;;4982081;28;20054;-80
2022/03/19 08:40:16;;;;;;;51.50;33.00;;;9.10;99.90;;;;;;4976138;28;20110;-81
2022/03/19 08:43:13;;;;;;;52.63;33.00;;;9.30;99.90;;;;;;4955947;28;20047;-81
2022/03/19 08:46:01;;;;;;;52.05;31.90;;;9.70;99.90;;;;;;4972726;28;20138;-82
2022/03/19 08:48:53;;;;;;;49.47;31.27;;;10.20;99.90;;;;;;4973431;28;20126;-80
2022/03/19 08:51:40;;;;;;;34.42;22.88;;;10.20;99.90;;;;;;4964201;28;20150;-82
2022/03/19 08:54:30;;;;;;;53.58;32.85;;;10.20;99.90;;;;;;4972671;28;20129;-80
2022/03/19 08:57:20;;;;;;;48.80;30.38;;;10.90;99.90;;;;;;4956712;28;20066;-81
2022/03/19 09:00:12;;;;;;;47.03;29.42;;;11.50;99.90;;;;;;4976167;28;20452;-81
2022/03/19 09:03:04;;;;;;;43.47;27.55;;;11.80;99.90;;;;;;4953573;28;20076;-81
2022/03/19 09:05:52;;;;;;;48.60;30.98;;;11.90;99.90;;;;;;4968781;28;20042;-80
2022/03/19 09:08:39;;;;;;;43.63;27.92;;;11.70;99.90;;;;;;4962337;28;20446;-82
2022/03/19 09:11:28;;;;;;;42.72;27.70;;;11.80;99.90;;;;;;4972388;28;20059;-81
2022/03/19 09:14:18;;;;;;;45.95;28.58;;;11.60;99.90;;;;;;4961990;28;20051;-84
2022/03/19 09:17:05;;;;;;;45.60;26.90;;;11.60;96.90;;;;;;4959051;28;20059;-80
2022/03/19 09:19:52;;;;;;;46.25;27.70;;;11.60;91.30;;;;;;4977436;28;20307;-81
2022/03/19 09:22:42;;;;;;;43.05;28.20;;;11.50;84.90;;;;;;4965250;28;20050;-82
2022/03/19 09:25:29;;;;;;;44.10;28.42;;;11.40;81.00;;;;;;4951907;28;20047;-81
2022/03/19 09:28:17;;;;;;;42.38;27.23;;;11.60;81.30;;;;;;4981369;28;20125;-79
2022/03/19 09:31:04;;;;;;;39.25;24.92;;;12.00;73.50;;;;;;4960141;28;20055;-81
2022/03/19 09:33:54;;;;;;;40.60;25.75;;;12.30;78.60;;;;;;4968016;28;20047;-80
2022/03/19 09:36:46;;;;;;;43.03;26.65;;;12.40;52.80;;;;;;4974039;28;20058;-82
2022/03/19 09:39:36;;;;;;;43.65;26.17;;;12.70;49.10;;;;;;4975270;28;20057;-82
2022/03/19 09:42:26;;;;;;;39.20;26.55;;;12.60;41.80;;;;;;4976136;28;20066;-82
2022/03/19 09:45:15;;;;;;;39.47;25.23;;;12.30;87.80;;;;;;4975627;28;20054;-80
2022/03/19 09:48:03;;;;;;;37.72;24.88;;;12.40;96.10;;;;;;4938213;28;20046;-80
2022/03/19 09:50:54;;;;;;;42.17;26.23;;;12.40;94.40;;;;;;4959010;28;20054;-81
2022/03/19 09:53:43;;;;;;;40.78;25.85;;;12.30;76.30;;;;;;4974593;28;20054;-81
2022/03/19 09:56:51;;;;;;;42.95;25.65;;;12.00;88.20;;;;;;4970089;28;20051;-81
2022/03/19 09:59:38;;;;;;;38.90;25.67;;;12.40;89.40;;;;;;4955431;28;20050;-80
2022/03/19 10:02:26;;;;;;;41.40;26.55;;;12.20;99.90;;;;;;4956565;29;20043;-82
2022/03/19 10:08:39;;;;;;;41.38;25.88;;;13.40;99.90;;;;;;4975826;28;20050;-81
2022/03/19 10:11:35;;;;;;;40.20;27.23;;;14.40;99.90;;;;;;4975582;28;20081;-81
2022/03/19 10:14:25;;;;;;;41.42;25.23;;;14.70;99.90;;;;;;4965372;28;20051;-81
2022/03/19 10:17:32;;;;;;;40.40;27.15;;;15.20;55.20;;;;;;4963444;28;20043;-80
2022/03/19 10:20:20;;;;;;;41.72;27.75;;;15.20;47.50;;;;;;4962161;28;20046;-81
2022/03/19 10:23:09;;;;;;;39.25;27.70;;;15.50;44.90;;;;;;4975614;28;20102;-82
2022/03/19 10:25:56;;;;;;;42.55;28.92;;;14.90;34.50;;;;;;4972379;28;20129;-80
2022/03/19 10:28:54;;;;;;;44.30;28.17;;;14.70;42.30;;;;;;4969336;28;20051;-82
2022/03/19 10:31:47;;;;;;;41.50;28.27;;;14.80;43.20;;;;;;4962347;28;20090;-82
2022/03/19 10:34:40;;;;;;;44.60;29.38;;;14.50;33.80;;;;;;4945593;28;20054;-82
2022/03/19 10:37:42;;;;;;;45.05;28.60;;;14.50;32.00;;;;;;4973976;28;20083;-83
2022/03/19 10:40:40;;;;;;;42.30;28.37;;;13.80;32.10;;;;;;4977350;28;20330;-82
2022/03/19 10:43:32;;;;;;;43.83;29.23;;;13.60;58.70;;;;;;4970408;28;20734;-81
2022/03/19 10:46:21;;;;;;;44.25;28.15;;;13.60;54.70;;;;;;4974836;28;20042;-81
2022/03/19 10:49:13;;;;;;;40.38;27.13;;;13.90;51.40;;;;;;4988431;28;20047;-82
2022/03/19 10:52:05;;;;;;;44.00;26.15;;;14.40;51.00;;;;;;4977938;28;20299;-81
2022/03/19 10:54:54;;;;;;;39.92;25.63;;;14.60;19.00;;;;;;4964550;28;20119;-82
2022/03/19 10:57:43;;;;;;;41.60;27.02;;;14.70;90.90;;;;;;4975756;28;20074;-80
2022/03/19 11:00:30;;;;;;;42.28;26.52;;;14.90;81.20;;;;;;4975264;28;20412;-81
2022/03/19 11:03:27;;;;;;;40.67;26.30;;;15.50;87.20;;;;;;4966056;28;20449;-80
2022/03/19 11:06:15;;;;;;;38.22;27.52;;;15.80;88.20;;;;;;4957944;28;20495;-82
2022/03/19 11:09:06;;;;;;;43.22;28.67;;;15.40;84.10;;;;;;4968074;28;20472;-80
2022/03/19 11:12:00;;;;;;;45.80;29.42;;;15.20;81.00;;;;;;4975038;28;20109;-82
2022/03/19 11:14:51;;;;;;;48.92;29.10;;;15.00;27.30;;;;;;4982133;28;20169;-83
2022/03/19 11:17:44;;;;;;;44.00;29.35;;;14.70;20.60;;;;;;4973857;28;20153;-81
2022/03/19 11:20:34;;;;;;;48.45;30.25;;;15.10;20.40;;;;;;4971335;28;20747;-80
2022/03/19 11:23:28;;;;;;;45.92;31.33;;;15.40;27.40;;;;;;4986594;28;20822;-80
2022/03/19 11:26:22;;;;;;;42.10;30.75;;;15.30;27.90;;;;;;4957957;28;20058;-80
2022/03/19 11:29:12;;;;;;;43.17;29.23;;;16.00;30.60;;;;;;4980312;28;20050;-81
2022/03/19 11:32:05;;;;;;;46.75;31.67;;;16.60;25.80;;;;;;4974465;28;20352;-80
2022/03/19 11:34:57;;;;;;;44.95;29.60;;;16.40;60.40;;;;;;4973377;28;20050;-82
2022/03/19 11:38:04;;;;;;;45.38;30.55;;;15.90;26.00;;;;;;4974149;28;20055;-79
2022/03/19 11:40:57;;;;;;;47.15;31.08;;;15.80;28.50;;;;;;4950990;28;20082;-81
2022/03/19 11:43:47;;;;;;;;;;;16.80;28.00;;;;;;4974083;28;20066;-79
2022/03/19 11:46:58;;;;;;;46.00;31.67;;;15.40;26.20;;;;;;4959992;28;20028;-80
2022/03/19 11:49:56;;;;;;;48.00;31.25;;;14.30;26.60;;;;;;4965835;28;20051;-81
2022/03/19 11:52:44;;;;;;;52.88;31.13;;;13.00;24.30;;;;;;4967718;28;20047;-79
2022/03/19 11:55:38;;;;;;;41.88;28.58;;;12.50;36.30;;;;;;4972059;28;20125;-82
2022/03/19 11:58:26;;;;;;;42.22;28.42;;;12.70;40.70;;;;;;4969759;28;20057;-79
2022/03/19 12:01:20;;;;;;;43.25;28.27;;;13.20;57.80;;;;;;4971406;28;20049;-81
2022/03/19 12:08:24;;;;;;;40.42;21.95;;;15.80;41.20;;;;;;4961542;28;20038;-80
2022/03/19 12:11:24;;;;;;;29.45;18.70;;;16.10;27.40;;;;;;4974197;28;20066;-82
2022/03/19 12:18:27;;;;;;;28.02;18.02;;;13.50;29.50;;;;;;4965263;28;20057;-81
2022/03/19 12:21:26;;;;;;;26.30;17.13;;;12.20;33.80;;;;;;4903617;28;20039;-82
2022/03/19 12:28:36;;;;;;;26.75;15.65;;;11.80;71.80;;;;;;4893927;29;20036;-81
2022/03/19 12:31:32;;;;;;;22.73;15.55;;;13.50;53.80;;;;;;4948562;28;20138;-81
2022/03/19 12:34:22;;;;;;;26.55;16.17;;;14.40;76.80;;;;;;4962815;28;20042;-79
2022/03/19 12:37:09;;;;;;;26.98;16.33;;;15.40;68.50;;;;;;4980678;28;20038;-82
2022/03/19 12:39:59;;;;;;;23.95;16.45;;;15.70;44.30;;;;;;4969450;28;20043;-81
2022/03/19 12:42:53;;;;;;;24.80;15.30;;;15.80;35.30;;;;;;4971807;28;20058;-79
2022/03/19 12:45:54;;;;;;;25.45;16.48;;;15.20;33.70;;;;;;4965604;28;20109;-79
2022/03/19 12:48:42;;;;;;;27.92;17.20;;;13.50;36.10;;;;;;4972923;28;20105;-80
2022/03/19 12:51:33;;;;;;;26.13;15.65;;;12.10;34.50;;;;;;4972776;28;20043;-80
2022/03/19 12:58:07;;;;;;;20.77;12.85;;;12.00;37.80;;;;;;4971647;28;20476;-79
2022/03/19 13:01:15;;;;;;;23.08;13.05;;;13.80;30.50;;;;;;4962087;28;20069;-81
2022/03/19 13:04:09;;;;;;;20.08;14.18;;;14.30;27.30;;;;;;4963329;28;20061;-77
2022/03/19 13:11:00;;;;;;;20.95;12.95;;;15.70;28.00;;;;;;4975206;28;20051;-81
2022/03/19 13:13:54;;;;;;;21.85;13.38;;;15.70;36.30;;;;;;4975773;28;20046;-80
2022/03/19 13:16:59;;;;;;;18.67;13.13;;;15.40;23.90;;;;;;4952615;28;20047;-79
2022/03/19 13:20:12;;;;;;;23.40;14.00;;;14.90;13.10;;;;;;4961221;28;20057;-81
2022/03/19 13:23:24;;;;;;;19.50;13.45;;;14.60;10.40;;;;;;4961113;28;20047;-80
2022/03/19 13:26:29;;;;;;;19.85;13.23;;;15.90;13.80;;;;;;4961302;28;20330;-82
2022/03/19 13:29:51;;;;;;;19.65;12.90;;;16.90;13.20;;;;;;4971098;28;20057;-82
2022/03/19 13:33:02;;;;;;;19.25;12.15;;;16.50;1.00;;;;;;4960561;28;20055;-80
2022/03/19 13:35:55;;;;;;;21.08;11.75;;;16.30;7.70;;;;;;4958407;28;20258;-79
2022/03/19 13:39:07;;;;;;;18.55;11.65;;;16.80;8.20;;;;;;4958640;28;20086;-80
2022/03/19 13:42:18;;;;;;;18.65;11.40;;;16.50;11.10;;;;;;4967977;28;20141;-78
2022/03/19 13:45:41;;;;;;;18.85;11.25;;;15.00;4.50;;;;;;4972923;28;20050;-80
2022/03/19 13:57:05;;;;;;;16.85;10.27;;;14.60;11.10;;;;;;4916283;29;20028;-81
2022/03/19 14:00:27;;;;;;;;;;;16.30;1.00;;;;;;4895268;29;20036;-80
2022/03/19 14:19:55;;;;;;;18.50;8.70;;;15.80;17.70;;;;;;4849840;29;20141;-80
2022/03/19 14:23:16;;;;;;;;;;;;;;;;;;;;;
2022/03/19 14:26:19;;;;;;;13.40;7.75;;;14.70;10.40;;;;;;4850075;29;20530;-79
2022/03/19 14:29:10;;;;;;;12.25;8.27;;;13.10;13.80;;;;;;4927721;28;20047;-80
2022/03/19 14:31:57;;;;;;;12.55;7.32;;;13.70;15.40;;;;;;4967841;28;20058;-81
2022/03/19 14:34:44;;;;;;;13.20;8.10;;;14.50;11.60;;;;;;4976366;28;20101;-78
2022/03/19 14:37:39;;;;;;;12.60;8.30;;;14.20;7.70;;;;;;4977476;28;20055;-80
2022/03/19 14:40:48;;;;;;;13.20;8.20;;;14.30;13.20;;;;;;4975015;28;20118;-78
2022/03/19 14:43:48;;;;;;;;;;;;;;;;;;;;;
2022/03/19 14:46:56;;;;;;;12.88;8.30;;;13.10;9.70;;;;;;4962670;28;20051;-79
2022/03/19 14:49:53;;;;;;;;;;;13.50;5.10;;;;;;4973192;28;20061;-82
2022/03/19 14:53:35;;;;;;;13.93;7.55;;;13.60;12.10;;;;;;4965284;28;19922;-81
2022/03/19 15:01:07;;;;;;;10.93;6.38;;;15.50;8.50;;;;;;4982428;28;20089;-81
2022/03/19 15:03:55;;;;;;;10.98;6.68;;;15.20;6.80;;;;;;4976041;28;20063;-81
2022/03/19 15:10:04;;;;;;;11.90;5.80;;;15.10;9.50;;;;;;5544204;23;19922;-81
2022/03/19 15:13:21;;;;;;;11.65;6.22;;;13.20;1.00;;;;;;4974500;28;20082;-82
2022/03/19 15:16:09;;;;;;;16.73;6.10;;;11.50;2.80;;;;;;4969015;28;20102;-81
2022/03/19 15:23:05;;;;;;;10.70;6.03;;;10.60;3.00;;;;;;4947252;29;20035;-81
2022/03/19 15:27:03;;;;;;;;;;;;;;;;;;;;;
2022/03/19 15:30:39;;;;;;;8.82;5.13;;;10.40;1.00;;;;;;4968477;28;20071;-82
2022/03/19 15:41:56;;;;;;;8.93;4.90;;;10.50;3.20;;;;;;4952541;28;20047;-80
2022/03/19 16:01:24;;;;;;;8.65;5.28;;;12.90;1.00;;;;;;4928694;29;20047;-80
2022/03/19 16:04:17;;;;;;;12.38;5.60;;;10.80;1.00;;;;;;4916503;29;20050;-82
2022/03/19 16:07:41;;;;;;;15.98;6.68;;;9.80;1.00;;;;;;4942887;29;20352;-80
2022/03/19 16:11:21;;;;;;;11.50;7.00;;;8.60;13.60;;;;;;4955768;28;20043;-80
2022/03/19 16:14:26;;;;;;;19.15;8.88;;;7.70;32.20;;;;;;4920556;29;20044;-80
2022/03/19 16:17:59;;;;;;;14.18;7.45;;;7.40;43.40;;;;;;4929379;29;20068;-81
2022/03/19 16:21:30;;;;;;;14.68;6.85;;;7.10;54.80;;;;;;4919654;29;20068;-79
2022/03/19 16:52:51;;;;;;;13.35;7.18;;;5.70;99.90;;;;;;4960562;28;20045;-80
2022/03/19 16:55:39;;;;;;;10.73;6.68;;;5.70;99.90;;;;;;4967105;29;20047;-79
2022/03/19 16:58:52;;;;;;;14.88;6.47;;;5.60;99.90;;;;;;4960855;28;20473;-79
2022/03/19 17:05:43;;;;;;;15.10;6.72;;;5.50;99.90;;;;;;4968862;29;20064;-81
2022/03/19 17:08:31;;;;;;;11.20;6.32;;;5.40;99.90;;;;;;4959451;28;20429;-82
2022/03/19 17:11:22;;;;;;;11.73;6.25;;;5.50;99.90;;;;;;4956805;28;20051;-81
2022/03/19 17:18:00;;;;;;;13.68;6.72;;;5.40;99.90;;;;;;4949127;29;19914;-81
2022/03/19 17:21:06;;;;;;;12.23;6.95;;;5.30;99.90;;;;;;4960834;29;20115;-82
2022/03/19 17:28:01;;;;;;;11.27;5.93;;;5.20;99.90;;;;;;4951982;28;20091;-81
2022/03/19 17:30:49;;;;;;;16.52;7.10;;;5.10;99.90;;;;;;4936211;29;20397;-79